Time;durP1;ratioP1;P1;durP2;ratioP2;P2;SDS_P1;SDS_P2;PMS_P1;PMS_P2;Temp;Humidity;BMP_temperature;BMP_pressure;BME280_temperature;BME280_humidity;BME280_pressure;Samples;Min_cycle;Max_cycle;Signal;HPM_P1;HPM_P2
2022/01/02 00:00:14;;;;;;;11.23;7.20;;;;;;;10.42;100.00;101546.28;4736464;30;20040;-75
2022/01/02 00:02:49;;;;;;;9.57;6.13;;;;;;;10.41;100.00;101536.59;4737476;30;20055;-75
2022/01/02 00:05:22;;;;;;;10.93;6.93;;;;;;;10.39;100.00;101538.31;4722146;30;20642;-74
2022/01/02 00:08:02;;;;;;;9.55;5.95;;;;;;;10.41;100.00;101530.44;4735493;30;20048;-75
2022/01/02 00:10:36;;;;;;;8.20;6.07;;;;;;;10.39;100.00;101519.88;4734835;30;20758;-75
2022/01/02 00:13:08;;;;;;;8.90;6.40;;;;;;;10.39;100.00;101521.63;4735186;30;20054;-75
2022/01/02 00:15:37;;;;;;;10.02;6.50;;;;;;;10.38;100.00;101517.19;4737527;30;20059;-75
2022/01/02 00:18:12;;;;;;;7.93;6.18;;;;;;;10.37;100.00;101521.59;4719524;30;20128;-75
2022/01/02 00:20:48;;;;;;;10.82;6.80;;;;;;;10.36;100.00;101506.66;4719975;30;25821;-74
2022/01/02 00:23:23;;;;;;;13.50;6.30;;;;;;;10.35;100.00;101494.34;4762347;30;20384;-75
2022/01/02 00:25:54;;;;;;;11.90;5.80;;;;;;;10.35;100.00;101515.41;4742333;30;20062;-75
2022/01/02 00:28:22;;;;;;;9.45;6.38;;;;;;;10.35;100.00;101518.06;4752879;30;20503;-74
2022/01/02 00:30:51;;;;;;;9.77;6.13;;;;;;;10.37;100.00;101523.34;4722515;30;20066;-75
2022/01/02 00:33:20;;;;;;;11.32;6.55;;;;;;;10.36;100.00;101530.38;4758139;30;20048;-75
2022/01/02 00:35:48;;;;;;;12.90;7.03;;;;;;;10.38;100.00;101527.75;4735677;30;20185;-75
2022/01/02 00:38:23;;;;;;;13.95;6.53;;;;;;;10.38;100.00;101519.84;4718504;30;20056;-74
2022/01/02 00:40:54;;;;;;;12.02;6.25;;;;;;;10.39;100.00;101511.09;4737592;30;20698;-75
2022/01/02 00:43:31;;;;;;;12.40;6.32;;;;;;;10.41;100.00;101510.22;4733591;30;20044;-75
2022/01/02 00:46:08;;;;;;;9.30;5.95;;;;;;;10.42;100.00;101513.78;4763017;30;20059;-74
2022/01/02 00:48:42;;;;;;;11.30;5.97;;;;;;;10.41;100.00;101507.59;4738712;30;20078;-75
2022/01/02 00:51:36;;;;;;;14.13;6.35;;;;;;;10.41;100.00;101496.19;4746067;30;20281;-75
2022/01/02 00:54:07;;;;;;;13.00;6.20;;;;;;;10.40;100.00;101494.44;4731861;30;20530;-75
2022/01/02 00:56:43;;;;;;;8.82;5.95;;;;;;;10.41;100.00;101497.06;4767356;30;20047;-74
2022/01/02 00:59:27;;;;;;;10.02;6.60;;;;;;;10.40;100.00;101481.25;4762047;29;20059;-75
2022/01/02 01:02:03;;;;;;;11.30;6.20;;;;;;;10.39;100.00;101496.16;4735637;30;20036;-75
2022/01/02 01:04:34;;;;;;;10.40;6.35;;;;;;;10.39;100.00;101496.16;4728489;30;20058;-75
2022/01/02 01:07:04;;;;;;;9.65;6.60;;;;;;;10.39;100.00;101496.16;4715921;30;20415;-75
2022/01/02 01:09:33;;;;;;;12.82;6.53;;;;;;;10.39;100.00;101496.16;4718383;30;20035;-75
2022/01/02 01:12:03;;;;;;;18.20;7.95;;;;;;;10.38;100.00;101481.22;4727620;30;20052;-75
2022/01/02 01:14:32;;;;;;;13.80;6.78;;;;;;;10.38;100.00;101481.22;4748449;30;20533;-75
2022/01/02 01:17:03;;;;;;;11.30;6.15;;;;;;;10.38;100.00;101482.94;4721248;30;20044;-75
2022/01/02 01:19:32;;;;;;;13.95;6.97;;;;;;;10.39;100.00;101482.09;4750725;30;20052;-74
2022/01/02 01:22:00;;;;;;;12.68;7.03;;;;;;;10.38;100.00;101472.41;4754026;30;20064;-75
2022/01/02 01:24:30;;;;;;;10.48;6.05;;;;;;;10.38;100.00;101472.41;4721559;30;20657;-75
2022/01/02 01:27:00;;;;;;;8.75;6.05;;;;;;;10.37;100.00;101479.44;4719203;30;20415;-75
2022/01/02 01:29:34;;;;;;;16.85;7.35;;;;;;;10.37;100.00;101494.38;4736212;30;20043;-74
2022/01/02 01:32:06;;;;;;;12.75;6.82;;;;;;;10.37;100.00;101481.19;4737109;30;20059;-74
2022/01/02 01:34:35;;;;;;;18.33;6.87;;;;;;;10.37;100.00;101482.06;4745191;30;20044;-74
2022/01/02 01:37:03;;;;;;;12.95;7.03;;;;;;;10.39;100.00;101495.28;4733276;30;20499;-74
2022/01/02 01:39:37;;;;;;;13.02;6.95;;;;;;;10.38;100.00;101494.41;4731507;30;20040;-74
2022/01/02 01:42:10;;;;;;;13.57;7.30;;;;;;;10.39;100.00;101490.88;4747392;30;20399;-75
2022/01/02 01:47:29;;;;;;;11.68;7.32;;;;;;;10.39;100.00;101480.34;4716564;30;20063;-74
2022/01/02 01:49:57;;;;;;;13.73;7.28;;;;;;;10.40;100.00;101473.34;4733548;30;20050;-74
2022/01/02 01:52:26;;;;;;;14.88;7.60;;;;;;;10.41;100.00;101467.19;4739848;30;20546;-74
2022/01/02 01:54:54;;;;;;;16.40;7.65;;;;;;;10.41;100.00;101457.53;4722951;30;20529;-76
2022/01/02 01:57:23;;;;;;;18.92;8.10;;;;;;;10.39;100.00;101453.13;4747008;30;20059;-75
2022/01/02 01:59:51;;;;;;;15.52;7.28;;;;;;;10.40;100.00;101449.63;4737103;30;20391;-75
2022/01/02 02:02:22;;;;;;;14.27;8.02;;;;;;;10.41;100.00;101449.63;4744590;30;20250;-74
2022/01/02 02:04:51;;;;;;;16.02;8.65;;;;;;;10.40;100.00;101449.63;4740015;30;20059;-75
2022/01/02 02:07:30;;;;;;;14.80;8.32;;;;;;;10.40;100.00;101441.72;4743056;30;20398;-75
2022/01/02 02:10:39;;;;;;;16.60;8.52;;;;;;;10.41;100.00;101446.13;4704833;30;20060;-75
2022/01/02 02:13:03;;;;;;;16.60;8.13;;;;;;;10.39;100.00;101438.19;4722801;30;20075;-76
2022/01/02 02:15:35;;;;;;;15.48;8.27;;;;;;;10.39;100.00;101437.31;4725736;30;20063;-75
2022/01/02 02:18:04;;;;;;;21.08;9.15;;;;;;;10.39;100.00;101432.03;4741308;30;20059;-75
2022/01/02 02:20:36;;;;;;;18.88;9.15;;;;;;;10.38;100.00;101431.16;4713012;30;20052;-74
2022/01/02 02:23:13;;;;;;;23.52;9.65;;;;;;;10.38;100.00;101430.25;4735602;30;20256;-74
2022/01/02 02:25:43;;;;;;;18.13;10.18;;;;;;;10.37;100.00;101426.75;4751888;29;20055;-74
2022/01/02 02:28:15;;;;;;;15.93;8.27;;;;;;;10.37;100.00;101412.69;4731937;30;20704;-74
2022/01/02 02:30:47;;;;;;;21.35;9.30;;;;;;;10.37;100.00;101405.66;4742446;30;20499;-74
2022/01/02 02:33:17;;;;;;;19.73;10.45;;;;;;;10.35;100.00;101404.78;4760936;30;20063;-74
2022/01/02 02:35:48;;;;;;;19.57;9.83;;;;;;;10.34;100.00;101401.25;4725510;30;20037;-74
2022/01/02 02:38:19;;;;;;;20.85;9.15;;;;;;;10.35;100.00;101399.50;4724728;30;20302;-74
2022/01/02 02:40:52;;;;;;;18.90;10.70;;;;;;;10.33;100.00;101388.94;4698238;30;20150;-74
2022/01/02 02:43:43;;;;;;;22.48;10.02;;;;;;;10.34;100.00;101387.22;4730157;30;20071;-74
2022/01/02 02:49:08;;;;;;;20.15;10.43;;;;;;;10.32;100.00;101391.53;4750480;30;20193;-74
2022/01/02 02:51:47;;;;;;;22.48;11.50;;;;;;;10.31;100.00;101384.53;4724006;30;20043;-74
2022/01/02 02:54:24;;;;;;;21.70;11.68;;;;;;;10.30;100.00;101375.75;4736075;30;20447;-74
2022/01/02 02:56:58;;;;;;;22.00;10.77;;;;;;;10.29;100.00;101373.94;4735567;30;20051;-74
2022/01/02 02:59:35;;;;;;;23.67;12.15;;;;;;;10.29;100.00;101357.25;4711731;30;20064;-74
2022/01/02 03:02:06;;;;;;;24.40;12.90;;;;;;;10.27;100.00;101353.72;4733763;30;20182;-74
2022/01/02 03:04:45;;;;;;;26.60;14.00;;;;;;;10.27;100.00;101354.59;4730522;30;20049;-74
2022/01/02 03:07:13;;;;;;;28.13;13.73;;;;;;;10.26;100.00;101347.53;4720708;30;20387;-74
2022/01/02 03:09:48;;;;;;;30.05;12.90;;;;;;;10.25;100.00;101342.28;4726090;30;20492;-74
2022/01/02 03:12:19;;;;;;;29.40;14.30;;;;;;;10.25;100.00;101350.19;4712608;30;20173;-74
2022/01/02 03:14:51;;;;;;;34.28;13.75;;;;;;;10.22;100.00;101342.22;4745376;30;20055;-74
2022/01/02 03:17:19;;;;;;;29.27;14.43;;;;;;;10.22;100.00;101347.50;4744277;30;20052;-74
2022/01/02 03:19:48;;;;;;;27.42;15.10;;;;;;;10.20;100.00;101336.94;4746060;30;20048;-74
2022/01/02 03:22:19;;;;;;;30.50;14.63;;;;;;;10.19;100.00;101315.84;4709024;30;20423;-74
2022/01/02 03:24:49;;;;;;;36.40;14.88;;;;;;;10.17;100.00;101310.59;4741084;30;20052;-74
2022/01/02 03:27:20;;;;;;;30.30;14.50;;;;;;;10.18;100.00;101311.47;4744104;30;20258;-74
2022/01/02 03:29:49;;;;;;;31.02;14.35;;;;;;;10.16;100.00;101311.44;4706848;30;20534;-74
2022/01/02 03:32:18;;;;;;;26.48;15.23;;;;;;;10.16;100.00;101306.16;4722957;30;20052;-74
2022/01/02 03:34:46;;;;;;;29.52;14.32;;;;;;;10.13;100.00;101299.13;4714047;30;20550;-74
2022/01/02 03:37:15;;;;;;;32.65;15.65;;;;;;;10.13;100.00;101307.03;4725086;30;20048;-74
2022/01/02 03:39:43;;;;;;;33.67;15.25;;;;;;;10.13;100.00;101308.75;4721073;30;20055;-74
2022/01/02 03:42:12;;;;;;;29.25;15.23;;;;;;;10.12;100.00;101302.59;4749211;30;20181;-74
2022/01/02 03:44:40;;;;;;;37.22;16.67;;;;;;;10.11;100.00;101298.22;4717268;30;20035;-74
2022/01/02 03:47:09;;;;;;;26.83;15.25;;;;;;;10.11;100.00;101289.41;4727989;30;20241;-74
2022/01/02 03:49:37;;;;;;;28.17;15.85;;;;;;;10.11;100.00;101278.88;4745539;30;20062;-74
2022/01/02 03:52:06;;;;;;;33.25;17.42;;;;;;;10.10;100.00;101275.38;4717597;30;20070;-74
2022/01/02 03:54:35;;;;;;;32.55;16.88;;;;;;;10.10;100.00;101275.38;4723371;30;20055;-74
2022/01/02 03:57:04;;;;;;;33.28;16.08;;;;;;;10.10;100.00;101272.75;4752062;30;20507;-74
2022/01/02 03:59:32;;;;;;;34.05;18.20;;;;;;;10.10;100.00;101261.34;4717641;30;20040;-74
2022/01/02 04:02:02;;;;;;;32.70;18.08;;;;;;;10.10;100.00;101245.53;4718513;30;20048;-74
2022/01/02 04:04:31;;;;;;;28.77;16.20;;;;;;;10.09;100.00;101243.75;4747903;30;20059;-74
2022/01/02 04:07:00;;;;;;;30.58;16.33;;;;;;;10.11;100.00;101244.66;4727927;30;20043;-74
2022/01/02 04:09:28;;;;;;;31.13;16.98;;;;;;;10.11;100.00;101242.00;4739581;30;20052;-74
2022/01/02 04:11:57;;;;;;;36.58;17.88;;;;;;;10.10;100.00;101233.25;4711143;30;20047;-74
2022/01/02 04:14:26;;;;;;;32.72;17.40;;;;;;;10.11;100.00;101242.94;4715332;30;20154;-74
2022/01/02 04:16:54;;;;;;;30.80;17.40;;;;;;;10.11;100.00;101236.75;4741993;30;20052;-74
2022/01/02 04:19:23;;;;;;;35.15;16.17;;;;;;;10.11;100.00;101236.75;4743043;30;20170;-74
2022/01/02 04:21:52;;;;;;;39.05;20.05;;;;;;;10.12;100.00;101231.50;4723805;30;20526;-74
2022/01/02 04:24:21;;;;;;;36.03;18.27;;;;;;;10.11;100.00;101227.13;4728576;30;20063;-74
2022/01/02 04:26:50;;;;;;;38.20;18.55;;;;;;;10.12;100.00;101210.44;4698505;30;20395;-74
2022/01/02 04:29:19;;;;;;;38.22;19.50;;;;;;;10.12;100.00;101213.06;4725553;30;20154;-74
2022/01/02 04:31:48;;;;;;;31.80;15.60;;;;;;;10.13;100.00;101208.69;4702615;30;20048;-74
2022/01/02 04:34:16;;;;;;;40.15;17.75;;;;;;;10.13;100.00;101213.94;4709910;30;20048;-74
2022/01/02 04:36:44;;;;;;;35.15;17.13;;;;;;;10.12;100.00;101214.84;4729463;30;20040;-74
2022/01/02 04:39:13;;;;;;;32.95;17.02;;;;;;;10.13;100.00;101220.13;4681867;30;20060;-74
2022/01/02 04:41:42;;;;;;;30.05;16.45;;;;;;;10.13;100.00;101201.69;4702611;30;20048;-74
2022/01/02 04:44:10;;;;;;;34.88;17.73;;;;;;;10.15;100.00;101201.69;4709045;30;20052;-74
2022/01/02 04:46:39;;;;;;;40.03;18.33;;;;;;;10.15;100.00;101192.06;4707748;30;20399;-74
2022/01/02 04:49:07;;;;;;;41.30;17.75;;;;;;;10.15;100.00;101192.06;4756089;30;20059;-74
2022/01/02 04:51:36;;;;;;;32.70;17.27;;;;;;;10.18;100.00;101182.41;4742991;30;20040;-74
2022/01/02 04:54:04;;;;;;;35.80;16.65;;;;;;;10.17;100.00;101178.91;4726625;30;20051;-74
2022/01/02 04:56:34;;;;;;;36.90;17.77;;;;;;;10.19;100.00;101176.25;4745358;30;20071;-74
2022/01/02 04:59:03;;;;;;;35.65;16.33;;;;;;;10.19;100.00;101177.16;4719717;30;20402;-74
2022/01/02 05:01:32;;;;;;;34.00;14.77;;;;;;;10.20;100.00;101175.41;4735995;30;20054;-74
2022/01/02 05:04:01;;;;;;;27.80;14.82;;;;;;;10.20;100.00;101171.00;4688673;30;20075;-74
2022/01/02 05:06:29;;;;;;;33.05;15.88;;;;;;;10.21;100.00;101163.97;4730693;30;20055;-74
2022/01/02 05:08:58;;;;;;;30.75;14.90;;;;;;;10.22;100.00;101171.03;4743719;30;20060;-74
2022/01/02 05:11:27;;;;;;;29.25;15.15;;;;;;;10.24;100.00;101166.66;4744037;30;20517;-74
2022/01/02 05:13:56;;;;;;;32.65;13.00;;;;;;;10.24;100.00;101142.97;4734370;30;20058;-74
2022/01/02 05:16:25;;;;;;;33.42;15.20;;;;;;;10.26;100.00;101150.00;4729108;30;20468;-74
2022/01/02 05:18:53;;;;;;;23.00;13.88;;;;;;;10.26;100.00;101152.63;4705884;30;20063;-74
2022/01/02 05:21:22;;;;;;;26.10;13.05;;;;;;;10.27;100.00;101153.53;4729336;30;20173;-74
2022/01/02 05:23:50;;;;;;;27.48;12.82;;;;;;;10.27;100.00;101148.25;4743991;30;20044;-74
2022/01/02 05:26:19;;;;;;;33.97;12.85;;;;;;;10.28;100.00;101143.03;4757229;30;20260;-74
2022/01/02 05:28:48;;;;;;;28.83;13.13;;;;;;;10.29;100.00;101147.41;4745421;30;20185;-74
2022/01/02 05:31:17;;;;;;;29.65;12.52;;;;;;;10.29;100.00;101134.22;4706214;30;20274;-74
2022/01/02 05:33:46;;;;;;;23.85;12.70;;;;;;;10.29;100.00;101131.59;4702033;30;20039;-74
2022/01/02 05:36:14;;;;;;;25.20;13.00;;;;;;;10.30;100.00;101138.69;4699355;30;20419;-74
2022/01/02 05:38:43;;;;;;;25.45;13.13;;;;;;;10.31;100.00;101126.38;4741554;30;20056;-74
2022/01/02 05:41:12;;;;;;;30.88;12.50;;;;;;;10.31;100.00;101113.22;4720140;30;20196;-74
2022/01/02 05:43:42;;;;;;;25.27;11.98;;;;;;;10.31;100.00;101114.09;4739852;30;20549;-74
2022/01/02 05:46:11;;;;;;;24.60;13.02;;;;;;;10.31;100.00;101119.34;4729169;30;20052;-74
2022/01/02 05:48:39;;;;;;;25.27;12.77;;;;;;;10.31;100.00;101108.81;4734103;30;20546;-74
2022/01/02 05:51:08;;;;;;;29.48;12.15;;;;;;;10.31;100.00;101098.28;4720032;30;20055;-74
2022/01/02 05:53:36;;;;;;;26.95;11.65;;;;;;;10.32;100.00;101093.88;4733334;30;20051;-74
2022/01/02 05:56:05;;;;;;;38.10;12.23;;;;;;;10.32;100.00;101092.16;4742964;30;20056;-74
2022/01/02 05:58:36;;;;;;;25.45;12.02;;;;;;;10.32;100.00;101086.88;4747271;30;20047;-74
2022/01/02 06:01:05;;;;;;;29.90;13.07;;;;;;;10.33;100.00;101079.84;4752454;30;20055;-74
2022/01/02 06:03:34;;;;;;;21.88;12.13;;;;;;;10.33;100.00;101062.28;4729287;30;20052;-74
2022/01/02 06:06:02;;;;;;;29.35;11.98;;;;;;;10.33;100.00;101059.66;4708525;30;20056;-74
2022/01/02 06:08:31;;;;;;;30.73;12.45;;;;;;;10.34;100.00;101056.16;4731857;30;20067;-74
2022/01/02 06:10:59;;;;;;;23.88;10.55;;;;;;;10.36;100.00;101058.81;4738247;30;20396;-74
2022/01/02 06:13:28;;;;;;;19.70;9.98;;;;;;;10.35;100.00;101049.13;4744901;30;20059;-75
2022/01/02 06:15:57;;;;;;;24.13;10.27;;;;;;;10.36;100.00;101045.66;4726488;30;20043;-74
2022/01/02 06:18:25;;;;;;;27.52;11.15;;;;;;;10.36;100.00;101037.75;4762664;30;20287;-75
2022/01/02 06:20:54;;;;;;;23.55;10.52;;;;;;;10.37;100.00;101043.88;4702818;30;20040;-75
2022/01/02 06:23:23;;;;;;;19.48;8.95;;;;;;;10.38;100.00;101043.00;4742180;30;20070;-75
2022/01/02 06:25:51;;;;;;;25.02;9.63;;;;;;;10.39;100.00;101042.16;4745527;30;20054;-75
2022/01/02 06:28:20;;;;;;;23.75;9.55;;;;;;;10.39;100.00;101018.44;4716249;30;20619;-75
2022/01/02 06:30:48;;;;;;;29.38;9.30;;;;;;;10.40;100.00;101022.84;4748320;30;20055;-75
2022/01/02 06:33:18;;;;;;;24.73;8.43;;;;;;;10.39;100.00;101006.13;4722938;30;20288;-75
2022/01/02 06:35:46;;;;;;;23.92;8.68;;;;;;;10.42;100.00;101011.44;4718609;30;20542;-75
2022/01/02 06:38:18;;;;;;;23.08;8.85;;;;;;;10.43;100.00;100999.13;4740359;30;20147;-75
2022/01/02 06:40:50;;;;;;;20.92;8.07;;;;;;;10.44;100.00;101012.31;4728490;30;20518;-75
2022/01/02 06:43:21;;;;;;;25.38;9.23;;;;;;;10.46;100.00;101001.81;4754008;30;20360;-75
2022/01/02 06:45:50;;;;;;;22.73;8.80;;;;;;;10.47;100.00;101004.44;4730546;30;20419;-75
2022/01/02 06:48:18;;;;;;;21.90;9.10;;;;;;;10.48;100.00;100985.13;4703257;30;20340;-74
2022/01/02 06:50:47;;;;;;;18.38;8.38;;;;;;;10.50;100.00;100980.72;4745430;30;20059;-75
2022/01/02 06:53:15;;;;;;;21.25;7.93;;;;;;;10.50;100.00;100972.84;4724671;30;20086;-75
2022/01/02 06:55:45;;;;;;;18.38;8.10;;;;;;;10.52;100.00;100967.56;4762654;30;20047;-75
2022/01/02 06:58:14;;;;;;;16.48;8.10;;;;;;;10.53;100.00;100957.06;4743661;30;20048;-75
2022/01/02 07:00:43;;;;;;;21.08;8.50;;;;;;;10.54;100.00;100942.97;4732080;30;20043;-75
2022/01/02 07:03:12;;;;;;;29.63;8.43;;;;;;;10.56;100.00;100943.00;4725005;30;20258;-75
2022/01/02 07:05:42;;;;;;;23.02;8.25;;;;;;;10.56;100.00;100936.84;4718706;30;20411;-75
2022/01/02 07:08:12;;;;;;;20.17;8.18;;;;;;;10.57;100.00;100928.97;4701631;30;20629;-75
2022/01/02 07:10:40;;;;;;;16.17;7.93;;;;;;;10.59;100.00;100921.06;4761065;30;20054;-75
2022/01/02 07:13:09;;;;;;;24.35;7.97;;;;;;;10.60;100.00;100901.75;4728608;30;20166;-75
2022/01/02 07:15:37;;;;;;;15.98;7.30;;;;;;;10.60;100.00;100894.69;4746423;30;20059;-75
2022/01/02 07:18:06;;;;;;;26.92;9.23;;;;;;;10.64;100.00;100900.88;4751323;30;20541;-75
2022/01/02 07:20:34;;;;;;;15.05;7.00;;;;;;;10.63;100.00;100889.44;4757804;30;20060;-75
2022/01/02 07:23:03;;;;;;;21.00;7.10;;;;;;;10.65;100.00;100878.94;4718524;30;20047;-75
2022/01/02 07:25:31;;;;;;;19.13;7.88;;;;;;;10.67;100.00;100877.16;4746563;30;20078;-75
2022/01/02 07:28:00;;;;;;;16.75;6.55;;;;;;;10.68;100.00;100878.91;4759101;30;20059;-75
2022/01/02 07:30:28;;;;;;;15.60;6.78;;;;;;;10.70;100.00;100874.56;4758442;30;20063;-75
2022/01/02 07:33:01;;;;;;;19.98;7.03;;;;;;;10.73;100.00;100866.63;4735125;30;20504;-75
2022/01/02 07:35:30;;;;;;;15.05;5.43;;;;;;;10.74;100.00;100873.69;4724457;30;20497;-75
2022/01/02 07:38:18;;;;;;;14.27;5.32;;;;;;;10.77;100.00;100875.44;4706327;30;20519;-75
2022/01/02 07:40:48;;;;;;;17.55;5.18;;;;;;;10.76;100.00;100882.47;4748487;30;20523;-75
2022/01/02 07:43:17;;;;;;;12.40;4.53;;;;;;;10.79;100.00;100868.41;4750136;30;20374;-75
2022/01/02 07:45:45;;;;;;;9.13;4.32;;;;;;;10.79;100.00;100860.50;4746736;30;20815;-75
2022/01/02 07:48:14;;;;;;;15.50;4.95;;;;;;;10.80;100.00;100847.34;4724884;30;20383;-75
2022/01/02 07:50:42;;;;;;;15.32;4.30;;;;;;;10.81;100.00;100851.75;4720617;30;20050;-75
2022/01/02 07:53:11;;;;;;;17.00;4.80;;;;;;;10.82;100.00;100845.56;4722187;30;20258;-75
2022/01/02 07:55:39;;;;;;;9.25;3.80;;;;;;;10.84;100.00;100838.56;4712964;30;20137;-75
2022/01/02 07:58:13;;;;;;;10.98;4.10;;;;;;;10.85;100.00;100831.50;4739380;30;20270;-75
2022/01/02 08:00:43;;;;;;;11.20;3.90;;;;;;;10.84;100.00;100838.56;4742615;30;20064;-75
2022/01/02 08:03:12;;;;;;;13.70;4.15;;;;;;;10.86;100.00;100838.56;4741207;30;20131;-75
2022/01/02 08:05:40;;;;;;;10.40;4.38;;;;;;;10.85;100.00;100842.06;4714696;30;20055;-75
2022/01/02 08:08:09;;;;;;;12.63;4.35;;;;;;;10.84;100.00;100846.47;4733197;30;20070;-75
2022/01/02 08:10:39;;;;;;;11.50;4.20;;;;;;;10.83;100.00;100842.09;4761823;30;20059;-75
2022/01/02 08:13:07;;;;;;;12.77;3.67;;;;;;;10.83;100.00;100841.19;4733063;30;20086;-75
2022/01/02 08:15:36;;;;;;;12.13;3.85;;;;;;;10.83;100.00;100855.25;4746656;30;20103;-75
2022/01/02 08:18:05;;;;;;;9.18;4.10;;;;;;;10.82;100.00;100848.22;4741942;30;20067;-75
2022/01/02 08:20:33;;;;;;;14.65;5.00;;;;;;;10.82;100.00;100840.31;4724179;30;20048;-75
2022/01/02 08:23:02;;;;;;;11.38;5.00;;;;;;;10.82;100.00;100840.31;4705779;30;20047;-75
2022/01/02 08:25:30;;;;;;;11.90;4.18;;;;;;;10.80;100.00;100842.06;4736165;30;20066;-75
2022/01/02 08:27:58;;;;;;;13.90;5.07;;;;;;;10.79;100.00;100839.41;4759742;30;20066;-75
2022/01/02 08:30:27;;;;;;;10.52;5.03;;;;;;;10.78;100.00;100845.59;4744322;30;20051;-75
2022/01/02 08:32:55;;;;;;;9.63;4.13;;;;;;;10.74;100.00;100842.06;4751971;30;20462;-75
2022/01/02 08:35:24;;;;;;;10.98;4.07;;;;;;;10.71;100.00;100845.53;4742720;30;20059;-75
2022/01/02 08:37:52;;;;;;;15.13;4.57;;;;;;;10.69;100.00;100844.66;4746192;30;20052;-75
2022/01/02 08:40:21;;;;;;;12.10;5.43;;;;;;;10.68;100.00;100836.75;4723233;30;20280;-75
2022/01/02 08:42:49;;;;;;;11.68;4.63;;;;;;;10.65;100.00;100840.25;4739894;30;20059;-75
2022/01/02 08:45:19;;;;;;;11.13;4.65;;;;;;;10.63;100.00;100844.66;4713711;30;20137;-75
2022/01/02 08:47:47;;;;;;;11.20;5.13;;;;;;;10.64;100.00;100849.06;4744865;30;20052;-74
2022/01/02 08:50:16;;;;;;;13.23;5.60;;;;;;;10.62;100.00;100844.66;4758293;30;20534;-75
2022/01/02 08:52:44;;;;;;;15.23;4.97;;;;;;;10.60;100.00;100841.13;4735318;30;20056;-75
2022/01/02 08:55:14;;;;;;;11.23;5.00;;;;;;;10.59;100.00;100847.28;4712684;30;20472;-75
2022/01/02 08:57:42;;;;;;;9.15;4.68;;;;;;;10.58;100.00;100842.88;4742426;30;20529;-75
2022/01/02 09:00:11;;;;;;;9.45;4.63;;;;;;;10.56;100.00;100824.44;4741251;30;20174;-75
2022/01/02 09:02:40;;;;;;;11.35;5.07;;;;;;;10.56;100.00;100816.53;4737626;30;20051;-76
2022/01/02 09:05:09;;;;;;;8.98;4.57;;;;;;;10.56;100.00;100828.81;4755973;30;20244;-76
2022/01/02 09:07:37;;;;;;;13.18;5.10;;;;;;;10.54;100.00;100832.31;4721627;30;20110;-74
2022/01/02 09:10:06;;;;;;;9.82;4.70;;;;;;;10.56;100.00;100828.81;4727563;30;20350;-74
2022/01/02 09:12:34;;;;;;;10.10;5.25;;;;;;;10.54;100.00;100842.00;4732329;30;20169;-74
2022/01/02 09:15:03;;;;;;;8.75;4.80;;;;;;;10.53;100.00;100830.56;4738909;30;20534;-74
2022/01/02 09:17:31;;;;;;;8.15;4.60;;;;;;;10.56;100.00;100842.00;4733098;30;20063;-74
2022/01/02 09:20:00;;;;;;;7.70;4.82;;;;;;;10.54;100.00;100832.31;4747503;30;20403;-74
2022/01/02 09:22:28;;;;;;;11.32;5.05;;;;;;;10.53;100.00;100841.13;4735821;30;20071;-74
2022/01/02 09:24:56;;;;;;;9.40;4.95;;;;;;;10.53;100.00;100845.53;4717815;30;20053;-74
2022/01/02 09:27:25;;;;;;;9.82;4.80;;;;;;;10.52;100.00;100841.97;4719520;30;20036;-74
2022/01/02 09:29:53;;;;;;;7.07;4.63;;;;;;;10.53;100.00;100842.88;4737882;30;20082;-74
2022/01/02 09:32:22;;;;;;;11.80;5.20;;;;;;;10.52;100.00;100828.81;4761300;30;20051;-74
2022/01/02 09:34:50;;;;;;;8.30;4.70;;;;;;;10.50;100.00;100814.75;4723912;30;20258;-74
2022/01/02 09:37:18;;;;;;;12.55;5.38;;;;;;;10.49;100.00;100817.38;4718868;30;20059;-74
2022/01/02 09:39:47;;;;;;;6.70;4.13;;;;;;;10.48;100.00;100800.69;4737737;30;20503;-74
2022/01/02 09:42:15;;;;;;;4.55;3.38;;;;;;;10.47;100.00;100793.69;4716077;30;20052;-74
2022/01/02 09:44:44;;;;;;;6.47;3.97;;;;;;;10.48;100.00;100791.91;4736289;30;20625;-74
2022/01/02 09:47:15;;;;;;;9.90;4.88;;;;;;;10.49;100.00;100797.19;4722477;30;20055;-74
2022/01/02 09:49:43;;;;;;;10.70;5.05;;;;;;;10.46;100.00;100778.72;4735551;30;20276;-74
2022/01/02 09:52:12;;;;;;;11.70;5.10;;;;;;;10.47;100.00;100774.34;4749171;30;20714;-74
2022/01/02 09:54:40;;;;;;;10.13;5.78;;;;;;;10.45;100.00;100784.91;4756181;30;20059;-74
2022/01/02 09:57:09;;;;;;;7.97;5.53;;;;;;;10.44;100.00;100777.84;4723511;30;20052;-74
2022/01/02 09:59:37;;;;;;;11.40;6.00;;;;;;;10.42;100.00;100778.75;4747331;30;20376;-74
2022/01/02 10:02:07;;;;;;;8.93;5.47;;;;;;;10.41;100.00;100769.06;4745187;30;20436;-74
2022/01/02 10:04:38;;;;;;;13.77;5.38;;;;;;;10.41;100.00;100753.25;4751207;30;20415;-74
2022/01/02 10:07:31;;;;;;;8.82;6.10;;;;;;;10.40;100.00;100754.16;4757700;30;20043;-74
2022/01/02 10:10:12;;;;;;;10.90;6.03;;;;;;;10.39;100.00;100757.66;4750677;30;20052;-74
2022/01/02 10:12:41;;;;;;;11.63;5.80;;;;;;;10.38;100.00;100750.59;4755315;30;20153;-74
2022/01/02 10:15:26;;;;;;;9.13;6.00;;;;;;;10.36;100.00;100744.47;4715806;30;20352;-74
2022/01/02 10:18:07;;;;;;;10.00;6.38;;;;;;;10.35;100.00;100735.69;4733391;30;20047;-74
2022/01/02 10:20:37;;;;;;;11.90;6.90;;;;;;;10.33;100.00;100738.31;4745632;30;20057;-74
2022/01/02 10:23:19;;;;;;;12.23;7.38;;;;;;;10.32;100.00;100726.03;4733454;30;23152;-74
2022/01/02 10:25:49;;;;;;;13.95;8.05;;;;;;;10.32;100.00;100720.75;4752565;30;20500;-74
2022/01/02 10:28:26;;;;;;;15.30;7.93;;;;;;;10.33;100.00;100726.91;4709082;30;20925;-74
2022/01/02 10:30:59;;;;;;;21.83;7.15;;;;;;;10.33;100.00;100716.38;4757850;30;20060;-74
2022/01/02 10:33:47;;;;;;;10.57;6.85;;;;;;;10.33;100.00;100716.38;4743668;30;20510;-74
2022/01/02 10:36:31;;;;;;;20.02;8.80;;;;;;;10.32;100.00;100710.22;4741725;30;20423;-74
2022/01/02 10:39:10;;;;;;;13.73;7.90;;;;;;;10.32;100.00;100707.59;4741509;30;20050;-74
2022/01/02 10:41:47;;;;;;;14.90;8.05;;;;;;;10.32;100.00;100706.69;4753277;30;20063;-74
2022/01/02 10:44:29;;;;;;;11.85;7.05;;;;;;;10.32;100.00;100714.59;4732430;30;20261;-74
2022/01/02 10:47:04;;;;;;;11.02;6.90;;;;;;;10.32;100.00;100704.06;4743374;30;20052;-74
2022/01/02 10:50:04;;;;;;;12.70;8.13;;;;;;;10.32;100.00;100697.06;4752192;30;20066;-79
2022/01/02 10:52:37;;;;;;;12.48;7.55;;;;;;;10.33;100.00;100696.16;4747036;30;20047;-74
2022/01/02 10:55:16;;;;;;;10.35;7.18;;;;;;;10.34;100.00;100700.56;4737301;30;20078;-74
2022/01/02 10:57:48;;;;;;;16.83;8.77;;;;;;;10.37;100.00;100696.19;4733364;30;20055;-74
2022/01/02 11:00:18;;;;;;;13.77;7.20;;;;;;;10.36;100.00;100679.50;4732128;30;20063;-74
2022/01/02 11:02:47;;;;;;;12.65;7.00;;;;;;;10.38;100.00;100685.66;4727398;30;20040;-74
2022/01/02 11:05:18;;;;;;;13.05;7.22;;;;;;;10.39;100.00;100682.13;4706828;30;20631;-74
2022/01/02 11:07:51;;;;;;;;;;;;;;;10.41;100.00;100675.09;4740495;30;20495;-74
2022/01/02 11:10:21;;;;;;;15.10;7.63;;;;;;;10.42;100.00;100687.41;4749918;30;20264;-74
2022/01/02 11:12:51;;;;;;;17.42;7.75;;;;;;;10.45;100.00;100671.63;4751053;30;20044;-74
2022/01/02 11:15:22;;;;;;;19.00;7.53;;;;;;;10.47;100.00;100677.75;4731833;30;20541;-74
2022/01/02 11:17:51;;;;;;;;;;;;;;;10.47;100.00;100671.59;4733100;30;20051;-74
2022/01/02 11:20:23;;;;;;;17.00;6.53;;;;;;;10.46;100.00;100669.84;4749277;30;20063;-74
2022/01/02 11:23:28;;;;;;;13.77;6.10;;;;;;;10.50;100.00;100664.56;4742570;30;20066;-74
2022/01/02 11:26:15;;;;;;;20.10;6.50;;;;;;;10.53;100.00;100655.81;4724793;30;20055;-83
2022/01/02 11:29:04;;;;;;;14.00;5.75;;;;;;;10.57;100.00;100656.66;4747403;30;20220;-75
2022/01/02 11:31:35;;;;;;;8.45;4.65;;;;;;;10.61;100.00;100640.88;4689272;30;20044;-74